Time;durP1;ratioP1;P1;durP2;ratioP2;P2;SDS_P1;SDS_P2;PMS_P1;PMS_P2;Temp;Humidity;BMP_temperature;BMP_pressure;BME280_temperature;BME280_humidity;BME280_pressure;Samples;Min_cycle;Max_cycle;Signal;HPM_P1;HPM_P2
2022/01/07 00:00:04;;;;;;;7.00;2.30;;;;;;;-4.22;89.77;99523.54;1663299;85;21932;-69
2022/01/07 00:02:32;;;;;;;4.42;2.35;;;;;;;-4.19;89.87;99527.39;1665210;84;21029;-68
2022/01/07 00:04:59;;;;;;;8.07;4.83;;;;;;;-4.19;89.83;99519.73;1665109;84;21042;-68
2022/01/07 00:07:25;;;;;;;7.30;3.87;;;;;;;-4.24;89.78;99516.28;1665814;84;21033;-68
2022/01/07 00:09:52;;;;;;;6.75;2.30;;;;;;;-4.22;89.66;99523.11;1665340;84;21056;-68
2022/01/07 00:12:21;;;;;;;7.92;3.95;;;;;;;-4.28;89.60;99525.19;1666339;84;21081;-68
2022/01/07 00:14:47;;;;;;;5.60;2.42;;;;;;;-4.31;89.58;99530.26;1665563;84;22186;-68
2022/01/07 00:17:19;;;;;;;6.42;2.55;;;;;;;-4.34;89.74;99526.80;1664318;84;21037;-68
2022/01/07 00:19:46;;;;;;;5.80;1.95;;;;;;;-4.44;90.10;99532.24;1661924;84;20981;-67
2022/01/07 00:22:14;;;;;;;5.22;2.30;;;;;;;-4.33;90.05;99531.92;1666830;84;20974;-67
2022/01/07 00:24:41;;;;;;;8.53;2.47;;;;;;;-4.24;90.29;99518.84;1657964;84;21095;-66
2022/01/07 00:27:09;;;;;;;8.65;3.17;;;;;;;-4.12;90.46;99521.48;1659082;84;20994;-67
2022/01/07 00:29:35;;;;;;;7.85;2.33;;;;;;;-3.99;90.57;99522.02;1663047;84;20990;-67
2022/01/07 00:32:03;;;;;;;10.38;4.55;;;;;;;-3.88;90.55;99525.52;1665867;84;21106;-67
2022/01/07 00:34:30;;;;;;;6.78;2.35;;;;;;;-3.84;90.61;99524.72;1665378;84;21041;-67
2022/01/07 00:36:56;;;;;;;8.18;2.62;;;;;;;-3.76;90.78;99527.30;1667292;84;22249;-67
2022/01/07 00:39:23;;;;;;;4.33;2.40;;;;;;;-3.80;90.63;99526.01;1667298;84;21068;-67
2022/01/07 00:41:49;;;;;;;5.13;2.13;;;;;;;-3.72;90.21;99530.75;1668370;84;21029;-66
2022/01/07 00:44:16;;;;;;;5.33;2.60;;;;;;;-3.73;90.00;99534.13;1680349;84;21112;-67
2022/01/07 00:46:43;;;;;;;4.87;2.62;;;;;;;-3.89;89.94;99526.38;1667345;84;21002;-67
2022/01/07 00:49:11;;;;;;;4.60;2.53;;;;;;;-3.99;90.23;99533.50;1664506;84;21491;-67
2022/01/07 00:51:38;;;;;;;7.60;2.17;;;;;;;-3.96;90.26;99533.52;1663818;84;22159;-67
2022/01/07 00:54:05;;;;;;;9.98;2.50;;;;;;;-3.99;90.13;99529.67;1663505;84;21053;-67
2022/01/07 00:56:32;;;;;;;9.38;2.45;;;;;;;-4.03;90.11;99535.61;1663605;85;21077;-67
2022/01/07 00:58:58;;;;;;;7.03;2.27;;;;;;;-4.07;90.01;99536.41;1663983;84;21026;-67
2022/01/07 01:01:25;;;;;;;5.42;1.67;;;;;;;-4.12;90.13;99531.25;1663655;84;21439;-67
2022/01/07 01:03:52;;;;;;;4.62;2.25;;;;;;;-4.14;90.19;99529.56;1664064;85;21065;-66
2022/01/07 01:06:18;;;;;;;5.27;2.00;;;;;;;-4.21;90.24;99526.51;1663968;85;21024;-67
2022/01/07 01:08:45;;;;;;;5.40;1.75;;;;;;;-4.28;90.32;99517.53;1664316;84;21011;-66
2022/01/07 01:11:11;;;;;;;6.07;1.90;;;;;;;-4.27;90.42;99517.11;1653385;85;20991;-66
2022/01/07 01:13:38;;;;;;;9.63;1.92;;;;;;;-4.20;90.44;99524.38;1664004;84;21115;-67
2022/01/07 01:16:05;;;;;;;10.60;2.72;;;;;;;-4.21;90.45;99516.31;1662900;85;21048;-67
2022/01/07 01:18:31;;;;;;;5.20;1.98;;;;;;;-4.19;90.34;99517.19;1659827;85;20978;-66
2022/01/07 01:20:59;;;;;;;4.17;2.60;;;;;;;-4.20;90.25;99516.73;1662811;84;21560;-67
2022/01/07 01:23:25;;;;;;;4.67;1.77;;;;;;;-4.21;90.23;99517.16;1663497;84;21583;-67
2022/01/07 01:25:52;;;;;;;4.97;1.92;;;;;;;-4.23;90.32;99509.91;1653824;85;21484;-66
2022/01/07 01:28:19;;;;;;;7.40;1.72;;;;;;;-4.30;90.28;99509.02;1650959;84;20966;-66
2022/01/07 01:30:45;;;;;;;4.22;1.85;;;;;;;-4.37;90.46;99500.89;1663861;84;21037;-66
2022/01/07 01:33:12;;;;;;;6.35;2.30;;;;;;;-4.34;90.52;99498.37;1656039;85;20979;-67
2022/01/07 01:35:42;;;;;;;4.20;1.98;;;;;;;-4.44;90.50;99500.38;1663802;84;21013;-66
2022/01/07 01:38:11;;;;;;;5.08;1.70;;;;;;;-4.39;90.38;99498.73;1651978;85;21139;-67
2022/01/07 01:40:42;;;;;;;5.15;1.82;;;;;;;-4.48;90.31;99490.14;1661900;84;21055;-67
2022/01/07 01:43:09;;;;;;;4.85;1.52;;;;;;;-4.52;90.25;99485.44;1663452;84;21068;-68
2022/01/07 01:45:35;;;;;;;7.75;1.87;;;;;;;-4.53;90.13;99490.11;1662025;85;21068;-68
2022/01/07 01:48:03;;;;;;;6.60;1.67;;;;;;;-4.62;90.08;99486.17;1664134;84;21121;-67
2022/01/07 01:50:29;;;;;;;5.62;1.90;;;;;;;-4.69;90.17;99476.78;1663462;84;21097;-67
2022/01/07 01:52:57;;;;;;;4.50;1.65;;;;;;;-4.75;90.20;99478.42;1663771;84;21540;-67
2022/01/07 01:55:28;;;;;;;4.50;1.77;;;;;;;-4.74;90.25;99480.12;1664218;84;21560;-68
2022/01/07 01:57:56;;;;;;;6.58;1.47;;;;;;;-4.81;90.26;99479.64;1663915;84;21084;-67
2022/01/07 02:00:26;;;;;;;11.25;3.33;;;;;;;-4.89;90.21;99478.70;1661708;84;21013;-67
2022/01/07 02:02:53;;;;;;;6.12;2.95;;;;;;;-4.93;90.24;99469.30;1662999;84;21082;-68
2022/01/07 02:05:19;;;;;;;11.27;3.63;;;;;;;-4.86;90.09;99466.00;1663617;84;20959;-67
2022/01/07 02:07:46;;;;;;;11.43;2.97;;;;;;;-4.90;90.12;99471.03;1662714;84;21069;-67
2022/01/07 02:10:15;;;;;;;12.95;3.27;;;;;;;-4.91;89.96;99470.60;1663264;85;21046;-67
2022/01/07 02:12:43;;;;;;;12.35;2.40;;;;;;;-4.96;89.96;99467.60;1656206;84;21591;-67
2022/01/07 02:15:13;;;;;;;7.80;2.58;;;;;;;-4.99;90.06;99474.33;1663384;84;21895;-67
2022/01/07 02:17:45;;;;;;;9.73;2.70;;;;;;;-5.10;89.98;99463.17;1663642;84;20978;-67
2022/01/07 02:20:21;;;;;;;11.38;2.67;;;;;;;-5.17;90.21;99470.73;1664098;86;21025;-67
2022/01/07 02:22:48;;;;;;;12.03;3.22;;;;;;;-5.25;90.18;99467.25;1638182;85;20978;-68
2022/01/07 02:25:15;;;;;;;11.18;2.70;;;;;;;-5.29;90.32;99465.52;1659041;84;21065;-68
2022/01/07 02:27:44;;;;;;;12.03;3.52;;;;;;;-5.29;90.34;99457.88;1664123;84;21079;-68
2022/01/07 02:30:16;;;;;;;14.13;3.33;;;;;;;-5.32;90.35;99460.39;1663896;85;20974;-67
2022/01/07 02:32:43;;;;;;;12.80;3.02;;;;;;;-5.34;90.31;99460.78;1663849;84;21009;-67
2022/01/07 02:35:11;;;;;;;9.85;3.02;;;;;;;-5.39;90.38;99456.05;1664517;84;21538;-68
2022/01/07 02:37:39;;;;;;;11.30;3.10;;;;;;;-5.42;90.50;99458.55;1663780;84;21006;-67
2022/01/07 02:40:08;;;;;;;7.90;3.40;;;;;;;-5.42;90.44;99456.01;1663293;85;21089;-67
2022/01/07 02:42:37;;;;;;;6.87;2.90;;;;;;;-5.45;90.44;99464.45;1663773;83;21057;-67
2022/01/07 02:45:08;;;;;;;;;;;;;;;-5.47;90.40;99461.03;1667571;84;21018;-67
2022/01/07 02:47:49;;;;;;;8.13;2.45;;;;;;;-5.42;90.72;99458.55;1648858;85;20541;-68
2022/01/07 02:50:06;;;;;;;16.25;3.42;;;;;;;-5.30;91.10;99454.88;1653884;85;21050;-67
2022/01/07 02:52:36;;;;;;;15.83;3.50;;;;;;;-5.17;91.36;99459.28;1661774;84;21153;-67
2022/01/07 02:57:52;;;;;;;5.42;2.33;;;;;;;-4.82;91.76;99448.62;1699611;83;20985;-67
2022/01/07 03:00:24;;;;;;;9.88;3.05;;;;;;;-4.61;91.92;99452.23;1681908;84;20981;-68
2022/01/07 03:02:51;;;;;;;6.50;2.87;;;;;;;-4.46;91.98;99443.44;1684945;82;20980;-67
2022/01/07 03:05:19;;;;;;;5.53;2.22;;;;;;;-4.31;91.93;99437.22;1706868;83;21064;-68
2022/01/07 03:07:51;;;;;;;5.45;2.47;;;;;;;-4.21;91.63;99436.00;1712988;82;24332;-67
2022/01/07 03:10:29;;;;;;;11.70;2.85;;;;;;;-4.24;91.39;99430.88;1706463;82;21026;-68
2022/01/07 03:13:00;;;;;;;11.40;2.95;;;;;;;-4.25;91.14;99430.47;1697879;82;21485;-67
2022/01/07 03:15:28;;;;;;;15.90;3.25;;;;;;;-4.25;90.90;99421.55;1708524;82;21160;-68
2022/01/07 03:17:55;;;;;;;9.13;3.00;;;;;;;-4.38;90.91;99433.33;1707056;83;21853;-68
2022/01/07 03:20:22;;;;;;;8.25;2.90;;;;;;;-4.40;90.88;99426.92;1721305;82;21467;-67
2022/01/07 03:22:50;;;;;;;10.18;3.45;;;;;;;-4.48;91.03;99426.03;1707564;84;21670;-67
2022/01/07 03:25:18;;;;;;;14.10;4.03;;;;;;;-4.53;91.05;99434.05;1707684;84;21532;-67
2022/01/07 03:27:48;;;;;;;8.78;3.87;;;;;;;-4.58;91.11;99433.16;1707809;84;21021;-67
2022/01/07 03:30:18;;;;;;;8.23;3.45;;;;;;;-4.61;91.11;99433.12;1705927;84;21079;-68
2022/01/07 03:32:46;;;;;;;11.95;3.55;;;;;;;-4.63;91.03;99434.80;1707407;84;20962;-67
2022/01/07 03:35:16;;;;;;;10.90;3.67;;;;;;;-4.60;90.98;99436.09;1707871;82;21559;-67
2022/01/07 03:37:44;;;;;;;9.80;3.50;;;;;;;-4.61;90.75;99430.58;1715827;83;20934;-68
2022/01/07 03:40:13;;;;;;;10.75;4.05;;;;;;;-4.64;90.67;99441.59;1708284;83;21016;-68
2022/01/07 03:42:40;;;;;;;16.17;4.15;;;;;;;-4.65;90.79;99432.65;1707561;84;21095;-68
2022/01/07 03:45:09;;;;;;;7.72;4.08;;;;;;;-4.66;90.76;99422.04;1707838;84;20969;-67
2022/01/07 03:47:35;;;;;;;10.18;4.08;;;;;;;-4.69;90.77;99422.02;1707889;84;20998;-67
2022/01/07 03:50:24;;;;;;;13.40;5.05;;;;;;;-4.70;90.81;99417.73;1707846;84;21215;-68
2022/01/07 03:52:56;;;;;;;9.48;3.87;;;;;;;-4.82;91.01;99429.52;1700975;83;21073;-65
2022/01/07 03:55:27;;;;;;;11.60;4.47;;;;;;;-4.80;90.90;99432.94;1701057;83;21492;-67
2022/01/07 03:57:54;;;;;;;8.95;4.20;;;;;;;-4.76;91.01;99427.05;1699859;82;20980;-67
2022/01/07 04:00:26;;;;;;;12.03;4.58;;;;;;;-4.75;90.94;99421.11;1684969;84;20946;-67
2022/01/07 04:02:54;;;;;;;13.98;5.40;;;;;;;-4.73;90.94;99424.53;1684053;83;21074;-67
2022/01/07 04:05:22;;;;;;;10.58;6.22;;;;;;;-4.73;90.94;99419.44;1699376;83;21041;-67
2022/01/07 04:07:50;;;;;;;10.53;4.28;;;;;;;-4.72;90.97;99414.77;1699167;83;21107;-68
2022/01/07 04:10:17;;;;;;;15.83;4.92;;;;;;;-4.70;91.06;99412.64;1699504;83;20999;-68
2022/01/07 04:12:44;;;;;;;12.05;5.20;;;;;;;-4.68;91.03;99418.61;1671497;83;20946;-68
2022/01/07 04:15:11;;;;;;;12.40;6.20;;;;;;;-4.68;90.96;99416.91;1699044;84;21044;-68
2022/01/07 04:17:41;;;;;;;8.58;4.40;;;;;;;-4.68;90.89;99414.79;1698828;83;21230;-68
2022/01/07 04:20:11;;;;;;;13.70;5.12;;;;;;;-4.69;90.91;99399.94;1700661;84;21077;-68
2022/01/07 04:22:39;;;;;;;9.35;4.80;;;;;;;-4.70;90.89;99413.91;1696551;83;21013;-68
2022/01/07 04:25:17;;;;;;;13.55;4.67;;;;;;;-4.70;90.82;99410.09;1692688;84;24436;-68
2022/01/07 04:27:42;;;;;;;11.48;4.60;;;;;;;-4.70;90.85;99415.19;1700135;83;21009;-67
2022/01/07 04:30:10;;;;;;;13.62;4.75;;;;;;;-4.70;90.88;99410.09;1696608;83;20962;-67
2022/01/07 04:32:37;;;;;;;12.68;4.85;;;;;;;-4.69;90.88;99411.83;1711981;81;21009;-68
2022/01/07 04:35:06;;;;;;;13.15;4.55;;;;;;;-4.73;90.80;99404.16;1700661;83;26732;-68
2022/01/07 04:37:33;;;;;;;9.33;5.08;;;;;;;-4.72;90.87;99414.77;1658554;85;21081;-67
2022/01/07 04:40:06;;;;;;;11.50;4.47;;;;;;;-4.76;90.75;99409.22;1681489;85;20954;-68
2022/01/07 04:42:32;;;;;;;10.88;4.37;;;;;;;-4.76;90.85;99405.41;1705056;83;21033;-67
2022/01/07 04:44:59;;;;;;;14.50;5.53;;;;;;;-4.73;91.02;99405.86;1702879;83;21012;-68
2022/01/07 04:47:26;;;;;;;10.85;5.10;;;;;;;-4.69;91.05;99407.58;1693228;83;21097;-63
2022/01/07 04:49:52;;;;;;;11.83;4.60;;;;;;;-4.66;91.15;99402.50;1691015;84;20969;-66
2022/01/07 04:52:22;;;;;;;12.93;5.85;;;;;;;-4.61;91.16;99400.01;1700961;84;20995;-65
2022/01/07 04:54:52;;;;;;;18.65;7.50;;;;;;;-4.58;91.12;99403.42;1700569;83;21021;-66
2022/01/07 04:57:19;;;;;;;13.45;7.00;;;;;;;-4.57;90.98;99394.08;1701388;84;21995;-66
2022/01/07 04:59:45;;;;;;;13.03;6.50;;;;;;;-4.56;91.02;99398.36;1701081;84;20922;-66
2022/01/07 05:02:12;;;;;;;9.43;4.75;;;;;;;-4.53;91.12;99398.38;1699540;83;21014;-66
2022/01/07 05:04:38;;;;;;;10.03;4.97;;;;;;;-4.52;91.10;99395.83;1700812;83;21088;-65
2022/01/07 05:07:07;;;;;;;13.13;5.62;;;;;;;-4.51;91.12;99390.30;1703319;83;21546;-65
2022/01/07 05:09:34;;;;;;;10.80;5.45;;;;;;;-4.49;91.15;99392.45;1701970;83;21353;-66
2022/01/07 05:12:00;;;;;;;11.73;5.60;;;;;;;-4.46;91.14;99389.92;1701571;83;21068;-65
2022/01/07 05:14:27;;;;;;;14.55;4.92;;;;;;;-4.45;91.12;99390.77;1700096;83;20941;-66
2022/01/07 05:16:54;;;;;;;13.13;4.77;;;;;;;-4.45;91.03;99399.30;1686874;84;21623;-65
2022/01/07 05:19:20;;;;;;;8.78;4.47;;;;;;;-4.48;90.93;99399.28;1711847;82;21559;-65
2022/01/07 05:21:47;;;;;;;13.53;5.12;;;;;;;-4.48;90.93;99396.73;1694993;83;21053;-66
2022/01/07 05:24:14;;;;;;;11.57;5.50;;;;;;;-4.49;90.91;99400.09;1700787;83;21004;-65
2022/01/07 05:26:41;;;;;;;13.55;5.05;;;;;;;-4.47;90.98;99392.48;1687527;84;21048;-66
2022/01/07 05:29:08;;;;;;;15.38;4.87;;;;;;;-4.48;90.94;99390.75;1700588;83;20997;-66
2022/01/07 05:31:34;;;;;;;15.85;6.22;;;;;;;-4.52;90.81;99392.43;1700988;82;26510;-66
2022/01/07 05:34:01;;;;;;;11.88;5.78;;;;;;;-4.56;90.74;99385.62;1683355;84;21524;-66
2022/01/07 05:36:28;;;;;;;10.43;5.40;;;;;;;-4.59;90.91;99380.50;1684889;84;21021;-66
2022/01/07 05:38:55;;;;;;;13.85;7.00;;;;;;;-4.64;91.03;99387.25;1700498;83;21492;-66
2022/01/07 05:41:22;;;;;;;13.05;6.33;;;;;;;-4.56;91.20;99386.89;1680779;84;21019;-66
2022/01/07 05:43:49;;;;;;;12.13;5.28;;;;;;;-4.53;91.13;99389.47;1671632;85;21572;-66
2022/01/07 05:48:33;;;;;;;12.33;6.03;;;;;;;-4.46;91.16;99379.73;1778319;78;27893;-67
2022/01/07 05:50:59;;;;;;;12.15;5.45;;;;;;;-4.44;91.14;99386.98;1791410;79;21037;-67
2022/01/07 05:53:26;;;;;;;15.78;6.15;;;;;;;-4.41;91.10;99383.17;1786992;79;22251;-66
2022/01/07 05:55:53;;;;;;;12.03;5.83;;;;;;;-4.37;91.24;99376.00;1777166;80;20848;-66
2022/01/07 05:58:19;;;;;;;11.33;5.67;;;;;;;-4.32;91.25;99375.59;1786394;80;20931;-66
2022/01/07 06:00:46;;;;;;;10.72;5.40;;;;;;;-4.27;91.33;99373.93;1789311;80;20942;-66
2022/01/07 06:03:13;;;;;;;10.70;5.30;;;;;;;-4.20;91.48;99376.52;1773578;80;21620;-67
2022/01/07 06:05:39;;;;;;;11.43;5.70;;;;;;;-4.11;91.51;99374.05;1779178;80;21460;-66
2022/01/07 06:08:06;;;;;;;9.03;5.33;;;;;;;-4.03;91.61;99376.62;1769964;79;20903;-66
2022/01/07 06:10:33;;;;;;;11.60;6.03;;;;;;;-3.97;91.47;99374.98;1770518;80;20903;-68
2022/01/07 06:13:00;;;;;;;7.90;4.97;;;;;;;-3.91;91.59;99375.00;1775381;80;21668;-68
2022/01/07 06:15:26;;;;;;;10.40;5.87;;;;;;;-3.89;91.47;99380.98;1768282;80;21123;-67
2022/01/07 06:17:53;;;;;;;11.28;5.72;;;;;;;-3.93;91.31;99380.51;1769618;79;21455;-66
2022/01/07 06:20:21;;;;;;;11.50;5.77;;;;;;;-3.87;91.48;99376.71;1772699;80;21072;-67
2022/01/07 06:22:48;;;;;;;13.20;5.97;;;;;;;-3.88;91.28;99373.74;1772207;79;21080;-67
2022/01/07 06:25:15;;;;;;;17.00;6.28;;;;;;;-3.88;91.19;99371.62;1767014;79;21096;-67
2022/01/07 06:27:43;;;;;;;21.03;7.17;;;;;;;-3.87;91.30;99373.31;1770084;80;21868;-67
2022/01/07 06:30:10;;;;;;;11.55;5.80;;;;;;;-3.85;91.36;99380.13;1762558;80;21158;-67
2022/01/07 06:32:37;;;;;;;11.68;5.53;;;;;;;-3.82;91.49;99375.05;1769819;79;21045;-67
2022/01/07 06:38:15;;;;;;;17.32;7.17;;;;;;;-3.69;91.74;99387.88;1733352;80;23034;-67
2022/01/07 06:40:41;;;;;;;12.60;5.92;;;;;;;-3.62;91.83;99389.59;1767422;79;21016;-66
2022/01/07 06:43:08;;;;;;;18.05;9.03;;;;;;;-3.66;91.96;99393.00;1774322;80;21180;-67
2022/01/07 06:45:34;;;;;;;21.68;8.98;;;;;;;-3.60;91.92;99390.47;1771783;80;21021;-67
2022/01/07 06:48:04;;;;;;;13.22;8.73;;;;;;;-3.51;91.83;99395.59;1772367;80;21069;-67
2022/01/07 06:50:30;;;;;;;16.02;8.80;;;;;;;-3.46;91.82;99388.81;1773317;80;25021;-66
2022/01/07 06:52:57;;;;;;;21.40;9.83;;;;;;;-3.42;91.83;99394.38;1775419;80;21056;-68
2022/01/07 06:55:24;;;;;;;15.70;7.72;;;;;;;-3.37;91.89;99391.40;1774582;80;21480;-67
2022/01/07 06:57:51;;;;;;;18.03;7.63;;;;;;;-3.30;91.94;99391.45;1767402;80;20986;-67
2022/01/07 07:00:18;;;;;;;;;;;;;;;-3.27;91.82;99391.45;1764259;80;21682;-67
2022/01/07 07:02:44;;;;;;;18.47;7.60;;;;;;;-3.24;91.83;99394.02;1759999;80;20150;-67
2022/01/07 07:05:11;;;;;;;11.28;6.28;;;;;;;-3.22;91.79;99395.72;1766937;80;21001;-67
2022/01/07 07:07:40;;;;;;;19.60;8.63;;;;;;;-3.21;91.69;99391.47;1770598;80;21860;-67
2022/01/07 07:10:08;;;;;;;18.70;7.70;;;;;;;-3.22;91.54;99389.73;1755127;80;20990;-68
2022/01/07 07:12:34;;;;;;;14.87;6.37;;;;;;;-3.25;91.49;99385.91;1785107;80;20939;-67
2022/01/07 07:15:01;;;;;;;14.10;6.62;;;;;;;-3.29;91.48;99381.22;1776586;80;21084;-67
2022/01/07 07:17:30;;;;;;;15.97;7.30;;;;;;;-3.28;91.50;99387.17;1766316;80;20915;-67
2022/01/07 07:19:57;;;;;;;12.75;6.30;;;;;;;-3.29;91.52;99383.77;1757929;80;21293;-66
2022/01/07 07:22:25;;;;;;;12.68;6.75;;;;;;;-3.30;91.48;99386.34;1763138;80;21085;-69
2022/01/07 07:24:54;;;;;;;17.65;6.95;;;;;;;-3.30;91.53;99381.23;1763664;80;20948;-69
2022/01/07 07:27:21;;;;;;;15.08;7.17;;;;;;;-3.29;91.59;99384.20;1759880;80;21084;-69
2022/01/07 07:29:50;;;;;;;18.15;7.65;;;;;;;-3.26;91.62;99382.94;1771905;80;20993;-67
2022/01/07 07:32:22;;;;;;;12.43;7.25;;;;;;;-3.26;91.66;99384.21;1764749;80;22044;-67
2022/01/07 07:34:58;;;;;;;13.28;7.72;;;;;;;-3.19;91.81;99395.73;1757937;80;20962;-67
2022/01/07 07:37:14;;;;;;;15.53;8.43;;;;;;;-3.12;91.92;99388.92;1768212;80;21041;-67
2022/01/07 07:39:41;;;;;;;20.35;8.88;;;;;;;-3.08;91.83;99383.00;1759355;80;20919;-68
2022/01/07 07:42:07;;;;;;;15.20;8.33;;;;;;;-3.04;91.77;99384.69;1761620;80;20985;-67
2022/01/07 07:44:34;;;;;;;15.30;8.58;;;;;;;-2.98;91.84;99392.36;1766048;80;21533;-67
2022/01/07 07:47:02;;;;;;;16.97;9.48;;;;;;;-2.90;91.87;99388.98;1762258;80;20954;-69
2022/01/07 07:49:29;;;;;;;19.20;9.25;;;;;;;-2.80;91.89;99390.68;1767206;80;21068;-68
2022/01/07 07:51:56;;;;;;;18.82;9.23;;;;;;;-2.74;91.84;99394.55;1764251;80;20939;-66
2022/01/07 07:54:25;;;;;;;21.05;10.13;;;;;;;-2.70;91.81;99387.30;1776662;80;20973;-68
2022/01/07 07:57:00;;;;;;;20.75;9.88;;;;;;;-2.63;91.88;99391.58;1773027;80;21145;-67
2022/01/07 07:59:27;;;;;;;20.30;10.72;;;;;;;-2.56;92.02;99398.37;1762550;80;21513;-67
2022/01/07 08:01:55;;;;;;;19.00;10.82;;;;;;;-2.45;92.06;99393.70;1777435;80;21005;-67
2022/01/07 08:04:25;;;;;;;24.10;11.80;;;;;;;-2.41;91.86;99396.67;1771498;80;20980;-67
2022/01/07 08:06:52;;;;;;;20.05;11.70;;;;;;;-2.40;91.77;99397.13;1770398;79;21115;-68
2022/01/07 08:09:19;;;;;;;27.03;13.57;;;;;;;-2.35;91.86;99394.11;1771173;80;21530;-68
2022/01/07 08:11:53;;;;;;;22.17;12.78;;;;;;;-2.28;92.04;99390.71;1771584;79;21126;-68
2022/01/07 08:17:06;;;;;;;20.25;11.33;;;;;;;-2.24;91.82;99391.15;1767888;80;20978;-69
2022/01/07 08:19:35;;;;;;;27.55;13.43;;;;;;;-2.17;91.82;99394.11;1776612;80;21555;-66
2022/01/07 08:22:02;;;;;;;21.23;12.28;;;;;;;-2.11;91.98;99391.53;1773549;80;21517;-67
2022/01/07 08:24:30;;;;;;;26.65;12.53;;;;;;;-2.03;92.01;99384.70;1768001;79;20950;-66
2022/01/07 08:27:00;;;;;;;24.57;12.37;;;;;;;-1.97;91.88;99388.11;1769067;80;25202;-67
2022/01/07 08:29:31;;;;;;;21.52;12.88;;;;;;;-1.91;91.87;99379.14;1764400;80;20953;-67
2022/01/07 08:34:54;;;;;;;25.92;13.53;;;;;;;-1.80;91.91;99373.56;1768567;80;21123;-67
2022/01/07 08:37:28;;;;;;;30.62;14.03;;;;;;;-1.77;91.81;99370.99;1772334;80;21165;-67
2022/01/07 08:39:56;;;;;;;22.22;13.25;;;;;;;-1.69;91.90;99369.69;1771271;80;21833;-68
2022/01/07 08:42:29;;;;;;;23.55;13.20;;;;;;;-1.65;91.77;99370.97;1771362;80;21068;-68
2022/01/07 08:44:55;;;;;;;29.50;14.38;;;;;;;-1.64;91.74;99367.54;1768463;78;21009;-68
2022/01/07 08:47:25;;;;;;;26.75;13.00;;;;;;;-1.52;91.98;99364.51;1769631;80;21223;-68
2022/01/07 08:49:54;;;;;;;27.80;13.53;;;;;;;-1.48;91.85;99363.22;1767923;80;21687;-68
2022/01/07 08:52:26;;;;;;;22.65;13.35;;;;;;;-1.43;91.82;99374.70;1763479;80;20998;-68
2022/01/07 08:54:59;;;;;;;24.55;11.80;;;;;;;-1.35;92.05;99376.80;1770393;80;21603;-68
2022/01/07 08:57:26;;;;;;;27.85;13.62;;;;;;;-1.19;92.23;99378.44;1768579;80;21017;-69
2022/01/07 08:59:53;;;;;;;19.82;11.95;;;;;;;-1.08;92.07;99380.10;1765367;80;21145;-69
2022/01/07 09:02:24;;;;;;;23.32;12.65;;;;;;;-1.08;91.81;99382.66;1768786;80;21060;-69
2022/01/07 09:04:51;;;;;;;22.45;12.40;;;;;;;-1.06;91.84;99383.52;1765666;80;21061;-70
2022/01/07 09:07:19;;;;;;;27.13;13.32;;;;;;;-0.99;91.79;99380.04;1766744;80;20974;-69
2022/01/07 09:09:46;;;;;;;26.65;14.40;;;;;;;-0.93;91.88;99374.87;1767621;79;21607;-70
2022/01/07 09:12:14;;;;;;;28.70;13.90;;;;;;;-0.91;92.01;99375.28;1769166;80;21060;-71
2022/01/07 09:14:45;;;;;;;25.62;14.05;;;;;;;-0.78;91.92;99374.78;1770328;80;21120;-70
2022/01/07 09:17:26;;;;;;;29.98;13.88;;;;;;;-0.75;91.81;99377.76;1769958;80;22674;-70
2022/01/07 09:19:53;;;;;;;25.15;14.30;;;;;;;-0.74;91.64;99373.89;1764440;80;21017;-70
2022/01/07 09:22:20;;;;;;;30.17;14.20;;;;;;;-0.64;91.89;99364.43;1763192;80;20979;-71
2022/01/07 09:24:47;;;;;;;26.17;14.28;;;;;;;-0.59;91.68;99364.38;1768056;80;21100;-70
2022/01/07 09:27:14;;;;;;;26.45;13.03;;;;;;;-0.59;91.68;99361.81;1771225;80;21048;-71
2022/01/07 09:29:43;;;;;;;29.10;14.07;;;;;;;-0.55;91.71;99360.94;1768529;80;21686;-72
2022/01/07 09:32:10;;;;;;;30.92;14.95;;;;;;;-0.49;91.62;99366.02;1772536;80;20938;-70
2022/01/07 09:34:37;;;;;;;25.23;12.90;;;;;;;-0.46;91.87;99361.70;1773837;80;26599;-71
2022/01/07 09:37:05;;;;;;;31.43;14.20;;;;;;;-0.40;91.87;99360.80;1771173;80;21739;-70
2022/01/07 09:39:38;;;;;;;27.85;14.20;;;;;;;-0.37;91.97;99368.46;1770652;80;22194;-70
2022/01/07 09:42:06;;;;;;;25.70;13.38;;;;;;;-0.25;91.78;99370.09;1765826;79;20975;-70
2022/01/07 09:44:42;;;;;;;25.12;12.33;;;;;;;-0.18;91.91;99368.31;1771186;80;21161;-71
2022/01/07 09:47:12;;;;;;;31.27;13.40;;;;;;;-0.10;91.89;99362.67;1767112;80;21149;-71
2022/01/07 09:49:42;;;;;;;23.40;12.93;;;;;;;-0.09;91.67;99360.52;1771744;79;21077;-71
2022/01/07 09:52:11;;;;;;;35.40;15.32;;;;;;;-0.04;91.87;99354.91;1763915;80;21239;-71
2022/01/07 09:55:00;;;;;;;23.52;12.98;;;;;;;0.07;91.91;99356.93;1773616;80;20967;-71
2022/01/07 09:57:27;;;;;;;25.72;13.25;;;;;;;0.15;91.83;99355.13;1744832;81;21571;-69
2022/01/07 09:59:54;;;;;;;27.23;13.67;;;;;;;0.26;91.79;99352.89;1739794;81;20975;-71
2022/01/07 10:02:22;;;;;;;23.57;13.15;;;;;;;0.38;92.09;99348.88;1744599;81;21924;-71
2022/01/07 10:04:49;;;;;;;27.73;12.33;;;;;;;0.50;91.93;99348.72;1746457;81;21023;-71
2022/01/07 10:07:26;;;;;;;24.40;13.40;;;;;;;0.62;92.02;99347.74;1742388;81;21686;-69
2022/01/07 10:10:12;;;;;;;23.35;12.78;;;;;;;0.69;91.77;99345.93;1749738;81;20982;-72
2022/01/07 10:13:06;;;;;;;23.60;12.10;;;;;;;0.69;92.20;99346.77;1738199;81;21702;-70
2022/01/07 10:15:39;;;;;;;21.27;13.10;;;;;;;0.74;91.88;99336.45;1741998;81;21081;-66
2022/01/07 10:18:13;;;;;;;23.02;12.53;;;;;;;0.68;91.29;99332.23;1733226;81;21082;-69
2022/01/07 10:20:44;;;;;;;21.97;12.88;;;;;;;0.71;91.67;99336.05;1733193;81;21231;-69
2022/01/07 10:23:31;;;;;;;23.77;13.40;;;;;;;0.80;91.64;99328.65;1735034;81;21080;-68
2022/01/07 10:25:58;;;;;;;28.40;14.47;;;;;;;0.78;91.42;99329.94;1699904;82;21057;-69
2022/01/07 10:28:37;;;;;;;24.75;12.43;;;;;;;0.81;91.57;99332.91;1699032;83;21123;-68
2022/01/07 10:31:27;;;;;;;27.45;15.38;;;;;;;0.80;91.39;99331.22;1706257;82;21013;-68
2022/01/07 10:34:07;;;;;;;30.88;15.48;;;;;;;0.79;91.30;99324.39;1722073;83;21192;-68
2022/01/07 10:36:39;;;;;;;26.45;15.98;;;;;;;0.79;91.75;99328.24;1724693;82;21018;-68
2022/01/07 10:39:07;;;;;;;31.27;15.53;;;;;;;0.82;91.40;99324.34;1723836;83;21060;-68
2022/01/07 10:41:37;;;;;;;28.80;15.95;;;;;;;0.74;91.21;99323.59;1701634;83;21589;-68
2022/01/07 10:44:28;;;;;;;32.85;16.70;;;;;;;0.78;91.30;99322.67;1648881;86;21017;-67
2022/01/07 10:46:56;;;;;;;32.30;16.20;;;;;;;0.65;91.24;99317.71;1648902;86;21125;-69
2022/01/07 10:49:32;;;;;;;32.35;16.07;;;;;;;0.62;91.08;99312.62;1626833;86;21149;-69
2022/01/07 10:52:08;;;;;;;27.95;15.18;;;;;;;0.56;91.07;99317.84;1651709;85;21603;-69
2022/01/07 10:54:37;;;;;;;25.12;13.28;;;;;;;0.55;91.23;99314.84;1657751;86;21657;-69
2022/01/07 10:57:09;;;;;;;25.32;13.83;;;;;;;0.57;91.55;99323.38;1651300;85;21064;-69
2022/01/07 10:59:36;;;;;;;25.23;13.08;;;;;;;0.60;91.75;99311.78;1620679;87;21685;-68
2022/01/07 11:02:05;;;;;;;27.85;13.30;;;;;;;0.63;92.10;99309.16;1597622;88;21086;-69
2022/01/07 11:04:43;;;;;;;24.50;13.85;;;;;;;0.68;91.79;99311.69;1628415;86;21146;-69
2022/01/07 11:07:12;;;;;;;23.92;13.65;;;;;;;0.69;91.90;99309.95;1648611;86;21131;-69
2022/01/07 11:09:38;;;;;;;23.12;12.20;;;;;;;0.66;91.52;99310.84;1657361;86;21136;-68
2022/01/07 11:14:42;;;;;;;25.45;12.82;;;;;;;0.75;92.01;99295.73;1855804;74;22765;-67
2022/01/07 11:17:22;;;;;;;22.10;12.20;;;;;;;0.82;92.19;99291.77;1821371;77;21008;-67
2022/01/07 11:19:56;;;;;;;20.55;11.60;;;;;;;0.85;91.92;99285.74;1821707;77;21061;-67
2022/01/07 11:22:38;;;;;;;;;;;;;;;;;;;;;
2022/01/07 11:25:17;;;;;;;23.70;12.50;;;;;;;0.70;91.24;99285.95;1679467;83;21623;-70
2022/01/07 11:27:54;;;;;;;23.10;11.75;;;;;;;0.68;91.37;99291.57;1687825;84;21120;-67
2022/01/07 11:30:28;;;;;;;26.00;11.97;;;;;;;0.61;91.26;99285.20;1687201;83;21065;-68
2022/01/07 11:32:58;;;;;;;22.00;11.65;;;;;;;0.55;91.05;99285.30;1685731;84;21774;-69
2022/01/07 11:35:30;;;;;;;24.67;11.00;;;;;;;0.46;91.04;99284.14;1683442;84;21051;-68
2022/01/07 11:38:00;;;;;;;26.23;12.55;;;;;;;0.37;91.05;99290.70;1684417;84;22232;-67
2022/01/07 11:40:47;;;;;;;17.77;11.28;;;;;;;0.37;91.36;99295.83;1683404;84;21031;-68
2022/01/07 11:43:31;;;;;;;25.27;12.10;;;;;;;0.38;91.38;99288.53;1712233;81;21025;-68
2022/01/07 11:45:56;;;;;;;27.15;12.30;;;;;;;0.33;91.35;99282.59;1715169;82;21176;-69
2022/01/07 11:48:30;;;;;;;21.10;11.65;;;;;;;0.36;91.46;99283.84;1709161;81;21051;-68
2022/01/07 11:51:04;;;;;;;20.43;10.80;;;;;;;0.35;91.32;99279.58;1717128;82;21053;-69